createdAt,value
2019-04-22T00:00:35.997Z,46.5034
2019-04-22T00:01:36.913Z,46.7323
2019-04-22T00:02:50.142Z,46.5721
2019-04-22T00:03:55.202Z,46.4164
2019-04-22T00:05:07.236Z,46.5339
2019-04-22T00:06:25.883Z,46.5156
2019-04-22T00:07:38.894Z,45.0706
2019-04-22T00:10:00.624Z,45.8152
2019-04-22T00:11:03.206Z,45.9663
2019-04-22T00:12:13.767Z,46.2593
2019-04-22T00:13:26.220Z,46.1082
2019-04-22T00:14:24.906Z,46.4714
2019-04-22T00:15:28.076Z,46.2638
2019-04-22T00:16:47.283Z,46.3325
2019-04-22T00:18:07.423Z,45.8106
2019-04-22T00:20:08.630Z,46.3981
2019-04-22T00:21:19.734Z,46.1494
2019-04-22T00:22:23.854Z,46.3752
2019-04-22T00:23:31.663Z,46.5446
2019-04-22T00:24:38.139Z,46.4851
2019-04-22T00:25:50.772Z,46.1646
2019-04-22T00:26:59.613Z,46.3340
2019-04-22T00:28:02.318Z,46.6941
2019-04-22T00:29:36.031Z,47.0191
2019-04-22T00:30:21.969Z,47.6417
2019-04-22T00:31:26.847Z,47.6509
2019-04-22T00:32:32.288Z,47.7562
2019-04-22T00:33:39.322Z,47.5746
2019-04-22T00:34:51.657Z,47.5731
2019-04-22T00:35:55.181Z,47.4678
2019-04-22T00:37:07.920Z,47.1748
2019-04-22T00:38:17.302Z,46.9474
2019-04-22T00:39:31.650Z,47.2267
2019-04-22T00:40:33.906Z,47.7073
2019-04-22T00:41:43.986Z,47.4174
2019-04-22T00:42:47.184Z,47.5425
2019-04-22T00:44:00.403Z,46.8040
2019-04-22T00:45:08.271Z,46.7597
2019-04-22T00:46:11.320Z,47.0054
2019-04-22T00:47:26.690Z,47.1809
2019-04-22T00:48:27.559Z,47.5425
2019-04-22T00:50:06.323Z,47.7104
2019-04-22T00:50:46.350Z,48.1819
2019-04-22T00:51:58.278Z,48.4154
2019-04-22T00:53:04.627Z,48.5298
2019-04-22T00:54:06.031Z,48.8136
2019-04-22T00:56:35.275Z,49.9733
2019-04-22T00:58:41.255Z,50.1472
2019-04-22T00:59:50.794Z,50.2663
2019-04-22T01:00:57.083Z,50.6004
2019-04-22T01:02:07.590Z,50.8141
2019-04-22T01:03:16.159Z,50.6325
2019-04-22T01:04:31.549Z,51.3649
2019-04-22T01:05:27.905Z,51.1437
2019-04-22T01:06:35.886Z,51.6945
2019-04-22T01:07:46.429Z,52.3796
2019-04-22T01:09:58.500Z,53.0999
2019-04-22T01:11:13.414Z,53.1350
2019-04-22T01:12:15.541Z,53.7621
2019-04-22T01:13:24.862Z,53.6583
2019-04-22T01:14:29.882Z,53.7438
2019-04-22T01:15:40.826Z,54.3435
2019-04-22T01:16:50.501Z,54.6227
2019-04-22T01:17:56.231Z,54.5129
2019-04-22T01:19:00.463Z,54.7005
2019-04-22T01:20:25.755Z,54.3725
2019-04-22T01:21:36.914Z,54.6365
2019-04-22T01:22:21.801Z,55.0179
2019-04-22T01:23:28.247Z,55.1049
2019-04-22T01:24:38.638Z,55.1125
2019-04-22T01:25:46.402Z,55.4391
2019-04-22T01:26:52.297Z,54.9157
2019-04-22T01:27:57.216Z,55.0576
2019-04-22T01:29:02.463Z,54.8669
2019-04-22T01:30:10.927Z,54.8791
2019-04-22T01:31:13.538Z,54.7112
2019-04-22T01:32:21.634Z,54.5953
2019-04-22T01:33:29.379Z,54.4961
2019-04-22T01:34:49.349Z,54.7829
2019-04-22T01:35:58.434Z,54.4945
2019-04-22T01:37:03.401Z,54.3358
2019-04-22T01:38:11.975Z,54.5098
2019-04-22T01:39:25.460Z,53.9605
2019-04-22T01:40:40.511Z,53.9788
2019-04-22T01:41:48.924Z,53.5058
2019-04-22T01:42:56.252Z,52.6192
2019-04-22T01:44:10.628Z,51.4961
2019-04-22T01:45:12.447Z,51.8715
2019-04-22T01:46:21.362Z,51.4092
2019-04-22T01:47:25.127Z,51.5892
2019-04-22T01:48:32.493Z,51.6014
2019-04-22T01:49:40.231Z,51.7342
2019-04-22T01:50:46.166Z,51.7342
2019-04-22T01:51:59.750Z,51.9356
2019-04-22T01:53:06.314Z,51.9097
2019-04-22T01:54:14.627Z,52.3293
2019-04-22T01:55:28.827Z,52.4178
2019-04-22T01:56:28.592Z,52.2972
2019-04-22T01:57:34.970Z,52.5261
2019-04-22T01:58:38.253Z,52.5994
2019-04-22T01:59:40.389Z,52.9290
2019-04-22T02:01:00.150Z,52.7504
2019-04-22T02:02:09.207Z,52.9152
2019-04-22T02:03:17.597Z,53.1868
2019-04-22T02:04:30.298Z,52.7504
2019-04-22T02:05:31.530Z,52.6741
2019-04-22T02:06:43.968Z,52.6375
2019-04-22T02:07:51.647Z,52.4849
2019-04-22T02:09:00.596Z,52.7184
2019-04-22T02:10:02.230Z,52.6406
2019-04-22T02:11:24.123Z,52.5582
2019-04-22T02:12:19.913Z,53.0755
2019-04-22T02:13:30.812Z,52.8847
2019-04-22T02:14:39.609Z,52.8099
2019-04-22T02:15:50.100Z,52.6696
2019-04-22T02:16:58.028Z,52.3980
2019-04-22T02:18:01.259Z,52.5078
2019-04-22T02:19:11.212Z,52.4895
2019-04-22T02:20:32.218Z,52.1614
2019-04-22T02:21:20.173Z,52.1645
2019-04-22T02:22:50.065Z,52.3079
2019-04-22T02:23:47.056Z,52.9610
2019-04-22T02:25:09.472Z,52.7840
2019-04-22T02:27:15.025Z,52.4498
2019-04-22T02:29:26.342Z,52.1324
2019-04-22T02:30:37.258Z,52.1798
2019-04-22T02:31:59.434Z,51.8090
2019-04-22T02:36:30.104Z,51.9951
2019-04-22T02:37:18.778Z,51.9188
2019-04-22T02:38:47.100Z,51.5938
2019-04-22T02:39:38.335Z,51.5969
2019-04-22T02:41:08.794Z,51.6106
2019-04-22T02:41:52.815Z,51.4366
2019-04-22T02:43:01.691Z,51.6213
2019-04-22T02:45:18.283Z,51.3695
2019-04-22T02:48:53.336Z,51.3817
2019-04-22T02:49:47.112Z,51.3817
2019-04-22T02:51:06.186Z,51.3237
2019-04-22T02:52:06.418Z,51.0338
2019-04-22T02:53:36.553Z,51.3375
2019-04-22T02:58:00.889Z,51.2139
2019-04-22T02:59:09.478Z,51.6762
2019-04-22T03:00:05.570Z,51.3741
2019-04-22T03:02:19.617Z,51.3146
2019-04-22T03:03:41.655Z,51.3130
2019-04-22T03:04:35.744Z,51.1391
2019-04-22T03:06:07.429Z,51.2123
2019-04-22T03:06:56.101Z,51.3451
2019-04-22T03:10:41.848Z,51.0246
2019-04-22T03:11:31.120Z,51.0536
2019-04-22T03:12:29.421Z,51.0018
2019-04-22T03:13:47.331Z,51.3787
2019-04-22T03:16:11.622Z,50.9422
2019-04-22T03:17:03.479Z,51.0719
2019-04-22T03:19:43.431Z,50.7607
2019-04-22T03:20:29.138Z,50.7912
2019-04-22T03:21:36.711Z,50.5806
2019-04-22T03:26:27.257Z,51.1894
2019-04-22T03:28:33.012Z,50.7240
2019-04-22T03:29:44.534Z,50.4616
2019-04-22T03:32:17.494Z,51.1757
2019-04-22T03:33:11.989Z,50.8568
2019-04-22T03:35:37.398Z,49.8177
2019-04-22T03:36:58.260Z,50.0328
2019-04-22T03:39:01.406Z,50.0008
2019-04-22T03:39:59.380Z,49.5201
2019-04-22T03:40:52.669Z,49.9352
2019-04-22T03:46:34.788Z,49.9413
2019-04-22T03:47:52.941Z,49.8772
2019-04-22T03:49:03.862Z,49.8024
2019-04-22T03:50:04.599Z,49.4957
2019-04-22T03:51:07.521Z,49.6849
2019-04-22T03:53:33.057Z,50.2525
2019-04-22T03:55:41.229Z,49.3370
2019-04-22T03:59:13.121Z,49.6788
2019-04-22T04:01:32.039Z,49.4972
2019-04-22T04:02:35.726Z,49.3324
2019-04-22T04:03:30.616Z,49.4972
2019-04-22T04:04:37.113Z,49.4957
2019-04-22T04:08:16.405Z,49.7887
2019-04-22T04:09:19.340Z,49.1997
2019-04-22T04:10:32.234Z,49.4240
2019-04-22T04:11:38.398Z,49.1661
2019-04-22T04:12:41.609Z,49.2348
2019-04-22T04:15:14.087Z,50.4677
2019-04-22T04:15:57.679Z,49.7261
2019-04-22T04:18:13.341Z,49.5247
2019-04-22T04:19:35.961Z,49.6803
2019-04-22T04:26:17.416Z,49.7292
2019-04-22T04:27:49.132Z,49.8344
2019-04-22T04:30:40.054Z,49.9489
2019-04-22T04:34:20.057Z,50.2281
2019-04-22T04:36:28.741Z,49.9992
2019-04-22T04:39:26.455Z,50.0832
2019-04-22T04:39:53.161Z,50.2831
2019-04-22T04:41:00.418Z,50.4082
2019-04-22T04:42:16.203Z,50.3334
2019-04-22T04:45:38.242Z,50.5531
2019-04-22T04:46:44.768Z,50.7744
2019-04-22T04:49:02.682Z,50.3807
2019-04-22T04:51:16.025Z,50.2068
2019-04-22T04:54:35.580Z,51.1757
2019-04-22T04:55:34.975Z,51.2093
2019-04-22T04:56:46.552Z,51.2169
2019-04-22T04:59:16.994Z,51.0933
2019-04-22T05:01:23.348Z,51.2078
2019-04-22T05:02:41.019Z,51.6579
2019-04-22T05:03:48.864Z,51.3313
2019-04-22T05:04:56.722Z,51.3924
2019-04-22T05:06:03.500Z,51.7311
2019-04-22T05:09:59.645Z,50.7317
2019-04-22T05:10:47.534Z,50.9300
2019-04-22T05:12:55.639Z,51.0658
2019-04-22T05:14:07.152Z,51.2917
2019-04-22T05:15:00.895Z,51.1131
2019-04-22T05:16:17.560Z,50.9606
2019-04-22T05:17:12.899Z,50.1686
2019-04-22T05:19:26.125Z,50.4814
2019-04-22T05:20:46.164Z,50.0816
2019-04-22T05:21:39.644Z,50.4814
2019-04-22T05:22:44.486Z,50.5135
2019-04-22T05:24:02.712Z,50.3700
2019-04-22T05:25:04.832Z,50.4982
2019-04-22T05:28:48.154Z,50.6004
2019-04-22T05:29:55.440Z,50.7866
2019-04-22T05:30:39.465Z,50.6859
2019-04-22T05:31:56.869Z,50.6416
2019-04-22T05:33:14.019Z,50.8843
2019-04-22T05:34:09.588Z,50.9071
2019-04-22T05:35:14.452Z,51.0903
2019-04-22T05:37:37.950Z,50.9987
2019-04-22T05:38:53.670Z,51.0216
2019-04-22T05:39:49.580Z,50.8156
2019-04-22T05:40:56.558Z,51.2276
2019-04-22T05:42:10.406Z,50.8049
2019-04-22T05:43:07.993Z,51.1803
2019-04-22T05:44:34.405Z,51.3008
2019-04-22T05:45:40.299Z,51.1086
2019-04-22T05:46:34.503Z,50.8141
2019-04-22T05:47:46.177Z,51.3451
2019-04-22T05:48:53.773Z,51.1223
2019-04-22T05:49:48.307Z,51.6884
2019-04-22T05:51:27.128Z,51.8135
2019-04-22T05:52:14.841Z,51.3954
2019-04-22T05:53:20.104Z,52.0241
2019-04-22T05:54:34.721Z,51.8730
2019-04-22T05:55:41.531Z,51.3191
2019-04-22T05:56:40.987Z,50.5776
2019-04-22T05:57:57.701Z,50.5409
2019-04-22T05:59:04.380Z,50.9194
2019-04-22T06:00:13.885Z,50.0954
2019-04-22T06:02:43.536Z,49.3462
2019-04-22T06:03:37.673Z,48.9418
2019-04-22T06:04:48.523Z,48.5939
2019-04-22T06:05:47.886Z,48.8426
2019-04-22T06:06:53.571Z,49.1356
2019-04-22T06:08:04.102Z,48.6030
2019-04-22T06:09:22.452Z,48.3970
2019-04-22T06:10:29.355Z,48.3055
2019-04-22T06:11:29.845Z,48.0812
2019-04-22T06:12:31.469Z,48.3330
2019-04-22T06:13:38.885Z,48.2887
2019-04-22T06:14:55.693Z,48.1590
2019-04-22T06:15:58.996Z,48.1056
2019-04-22T06:17:10.679Z,47.9347
2019-04-22T06:19:27.882Z,47.7699
2019-04-22T06:20:37.087Z,47.8340
2019-04-22T06:21:46.185Z,47.5059
2019-04-22T06:22:57.109Z,47.6600
2019-04-22T06:24:05.138Z,47.6112
2019-04-22T06:25:17.191Z,47.6432
2019-04-22T06:26:19.512Z,47.6280
2019-04-22T06:28:50.087Z,47.5425
2019-04-22T06:29:37.013Z,47.9713
2019-04-22T06:30:53.486Z,47.4266
2019-04-22T06:32:17.462Z,47.3075
2019-04-22T06:33:08.524Z,47.6432
2019-04-22T06:34:17.798Z,47.3716
2019-04-22T06:35:29.744Z,47.3259
2019-04-22T06:36:31.057Z,47.3182
2019-04-22T06:37:43.318Z,47.7394
2019-04-22T06:39:01.611Z,47.8401
2019-04-22T06:39:55.532Z,47.7806
2019-04-22T06:41:04.274Z,47.8019
2019-04-22T06:43:16.270Z,47.5196
2019-04-22T06:44:24.100Z,47.8538
2019-04-22T06:45:44.991Z,47.7699
2019-04-22T06:46:39.657Z,47.8614
2019-04-22T06:48:57.281Z,47.4083
2019-04-22T06:50:07.590Z,47.3945
2019-04-22T06:51:14.689Z,47.2450
2019-04-22T06:52:19.620Z,47.3121
2019-04-22T06:53:29.708Z,47.2984
2019-04-22T06:54:40.670Z,47.4372
2019-04-22T06:55:48.204Z,47.9438
2019-04-22T06:56:54.662Z,47.8523
2019-04-22T06:57:58.138Z,47.8675
2019-04-22T06:59:06.888Z,47.6921
2019-04-22T07:00:19.386Z,47.1702
2019-04-22T07:02:47.168Z,46.5156
2019-04-22T07:04:55.156Z,46.8544
2019-04-22T07:05:59.543Z,46.8833
2019-04-22T07:07:08.348Z,46.3966
2019-04-22T07:08:30.699Z,46.7735
2019-04-22T07:11:37.924Z,47.3213
2019-04-22T07:12:47.209Z,46.9734
2019-04-22T07:14:00.085Z,47.3411
2019-04-22T07:15:02.775Z,47.5593
2019-04-22T07:16:05.101Z,47.1626
2019-04-22T07:17:15.935Z,47.9179
2019-04-22T07:19:33.640Z,48.0644
2019-04-22T07:20:45.879Z,48.3574
2019-04-22T07:21:50.620Z,48.5359
2019-04-22T07:23:06.797Z,48.6992
2019-04-22T07:24:21.249Z,48.7358
2019-04-22T07:25:10.286Z,48.9479
2019-04-22T07:26:20.341Z,49.1661
2019-04-22T07:27:27.791Z,49.2714
2019-04-22T07:28:34.407Z,49.4224
2019-04-22T07:29:46.985Z,49.4377
2019-04-22T07:30:54.530Z,49.4499
2019-04-22T07:32:04.729Z,49.3416
2019-04-22T07:33:31.299Z,49.8116
2019-04-22T07:34:19.736Z,49.9031
2019-04-22T07:35:28.862Z,49.6284
2019-04-22T07:36:45.676Z,49.9641
2019-04-22T07:38:43.913Z,49.4423
2019-04-22T07:39:50.190Z,49.0013
2019-04-22T07:40:59.312Z,49.0303
2019-04-22T07:42:16.755Z,49.1020
2019-04-22T07:43:29.185Z,49.8131
2019-04-22T07:44:31.192Z,49.7032
2019-04-22T07:45:36.069Z,49.5247
2019-04-22T07:46:54.257Z,49.2164
2019-04-22T07:48:04.008Z,48.3101
2019-04-22T07:49:02.984Z,48.8197
2019-04-22T07:50:22.830Z,48.8334
2019-04-22T07:52:22.533Z,49.3446
2019-04-22T07:53:28.886Z,49.3187
2019-04-22T07:54:41.640Z,49.4362
2019-04-22T07:55:47.526Z,49.0120
2019-04-22T07:57:02.670Z,48.9754
2019-04-22T07:58:07.373Z,48.8914
2019-04-22T07:59:15.598Z,49.0028
2019-04-22T08:00:22.699Z,48.9418
2019-04-22T08:01:26.690Z,48.8838
2019-04-22T08:02:37.893Z,48.6641
2019-04-22T08:04:15.225Z,48.3467
2019-04-22T08:06:11.684Z,47.3411
2019-04-22T08:07:14.362Z,47.4540
2019-04-22T08:08:21.219Z,47.3213
2019-04-22T08:09:34.073Z,47.5914
2019-04-22T08:10:29.800Z,47.5059
2019-04-22T08:11:55.320Z,47.4952
2019-04-22T08:13:51.256Z,46.3188
2019-04-22T08:15:05.657Z,46.4302
2019-04-22T08:16:10.562Z,46.7460
2019-04-22T08:17:45.149Z,46.8910
2019-04-22T08:18:37.429Z,46.7964
2019-04-22T08:19:53.942Z,46.6850
2019-04-22T08:20:58.698Z,46.2654
2019-04-22T08:21:50.722Z,46.4622
2019-04-22T08:23:04.839Z,46.5034
2019-04-22T08:24:13.073Z,45.9434
2019-04-22T08:25:20.386Z,46.0822
2019-04-22T08:26:28.393Z,46.0914
2019-04-22T08:27:33.456Z,45.6230
2019-04-22T08:28:46.505Z,45.7603
2019-04-22T08:29:58.596Z,45.6977
2019-04-22T08:30:59.673Z,44.3458
2019-04-22T08:32:05.085Z,44.1276
2019-04-22T08:33:15.883Z,43.8193
2019-04-22T08:35:49.083Z,43.3844
2019-04-22T08:37:51.170Z,42.9725
2019-04-22T08:39:00.674Z,42.7222
2019-04-22T08:40:09.509Z,42.6215
2019-04-22T08:41:16.453Z,42.1942
2019-04-22T08:42:27.192Z,41.7197
2019-04-22T08:43:36.457Z,41.8692
2019-04-22T08:44:52.038Z,41.7823
2019-04-22T08:45:56.939Z,41.4679
2019-04-22T08:46:56.131Z,40.9918
2019-04-22T08:47:59.171Z,39.9939
2019-04-22T08:49:05.637Z,40.4059
2019-04-22T08:50:14.100Z,40.4776
2019-04-22T08:52:54.883Z,39.8932
2019-04-22T08:53:45.172Z,40.1129
2019-04-22T08:54:50.287Z,40.4425
2019-04-22T08:56:10.902Z,40.5844
2019-04-22T08:57:06.662Z,40.4273
2019-04-22T08:58:20.280Z,40.2594
2019-04-22T08:59:34.286Z,39.9100
2019-04-22T09:00:34.194Z,39.5209
2019-04-22T09:01:36.079Z,39.6307
2019-04-22T09:02:52.192Z,39.8474
2019-04-22T09:03:52.371Z,39.8566
2019-04-22T09:04:53.773Z,39.8917
2019-04-22T09:06:15.266Z,40.3738
2019-04-22T09:07:20.931Z,39.1959
2019-04-22T09:08:26.286Z,39.4202
2019-04-22T09:09:36.277Z,39.8733
2019-04-22T09:10:54.137Z,38.7762
2019-04-22T09:11:46.978Z,38.1308
2019-04-22T09:14:01.678Z,38.0972
2019-04-22T09:15:11.275Z,38.7259
2019-04-22T09:16:27.967Z,38.9487
2019-04-22T09:17:27.813Z,38.8083
2019-04-22T09:18:39.869Z,39.5407
2019-04-22T09:19:40.561Z,38.8037
2019-04-22T09:20:57.305Z,39.1409
2019-04-22T09:22:00.391Z,38.7533
2019-04-22T09:23:12.898Z,38.4588
2019-04-22T09:24:16.059Z,38.2773
2019-04-22T09:25:26.966Z,38.1201
2019-04-22T09:26:41.896Z,37.9751
2019-04-22T09:27:59.469Z,38.3368
2019-04-22T09:28:52.357Z,37.9110
2019-04-22T09:29:58.444Z,38.1796
2019-04-22T09:31:06.629Z,38.6191
2019-04-22T09:32:15.343Z,37.9156
2019-04-22T09:33:20.383Z,38.1796
2019-04-22T09:34:32.007Z,37.7630
2019-04-22T09:35:41.418Z,37.5158
2019-04-22T09:36:42.049Z,37.3861
2019-04-22T09:38:00.250Z,37.2869
2019-04-22T09:39:02.894Z,37.4929
2019-04-22T09:40:13.073Z,37.8592
2019-04-22T09:41:15.212Z,37.4960
2019-04-22T09:42:24.636Z,37.8180
2019-04-22T09:43:32.238Z,37.3510
2019-04-22T09:44:41.975Z,37.0260
2019-04-22T09:45:47.929Z,37.2091
2019-04-22T09:46:57.932Z,37.3495
2019-04-22T09:48:09.860Z,37.3587
2019-04-22T09:49:12.090Z,37.7554
2019-04-22T09:50:24.190Z,37.5158
2019-04-22T09:51:25.342Z,36.9970
2019-04-22T09:52:37.531Z,36.4981
2019-04-22T09:53:47.196Z,37.2320
2019-04-22T09:55:57.221Z,37.6669
2019-04-22T09:57:12.053Z,37.2274
2019-04-22T09:58:21.281Z,37.0840
2019-04-22T09:59:20.669Z,37.0214
2019-04-22T10:00:37.646Z,37.4685
2019-04-22T10:02:59.264Z,38.5061
2019-04-22T10:05:08.667Z,38.6252
2019-04-22T10:06:22.854Z,38.9090
2019-04-22T10:07:20.967Z,38.9029
2019-04-22T10:08:32.010Z,38.6969
2019-04-22T10:10:01.482Z,37.2641
2019-04-22T10:10:51.625Z,37.3587
2019-04-22T10:11:50.916Z,38.0011
2019-04-22T10:13:06.401Z,37.8515
2019-04-22T10:15:14.981Z,37.7371
2019-04-22T10:17:32.212Z,37.2915
2019-04-22T10:18:43.619Z,37.2534
2019-04-22T10:19:48.011Z,37.0977
2019-04-22T10:21:02.955Z,36.1181
2019-04-22T10:22:08.558Z,35.7534
2019-04-22T10:23:17.580Z,35.8892
2019-04-22T10:24:21.586Z,35.5428
2019-04-22T10:25:29.856Z,35.5749
2019-04-22T10:26:39.158Z,34.7860
2019-04-22T10:27:51.316Z,35.1400
2019-04-22T10:29:00.781Z,34.7372
2019-04-22T10:30:00.258Z,34.8837
2019-04-22T10:31:09.926Z,35.1659
2019-04-22T10:32:14.841Z,34.6532
2019-04-22T10:33:24.018Z,34.6487
2019-04-22T10:34:16.794Z,34.6395
2019-04-22T10:35:19.243Z,33.8933
2019-04-22T10:36:23.618Z,33.4264
2019-04-22T10:37:26.404Z,33.8201
2019-04-22T10:38:30.416Z,33.3852
2019-04-22T10:39:42.269Z,33.8704
2019-04-22T10:40:42.721Z,33.7255
2019-04-22T10:41:46.488Z,33.9544
2019-04-22T10:42:49.506Z,33.8445
2019-04-22T10:43:52.934Z,33.4081
2019-04-22T10:44:57.289Z,32.7230
2019-04-22T10:46:00.288Z,33.1701
2019-04-22T10:47:04.219Z,32.7871
2019-04-22T10:48:08.224Z,30.8095
2019-04-22T10:49:12.536Z,31.1849
2019-04-22T10:50:16.490Z,31.2810
2019-04-22T10:51:19.310Z,30.5974
2019-04-22T10:52:23.651Z,29.9672
2019-04-22T10:53:26.326Z,29.1569
2019-04-22T10:54:29.536Z,29.5460
2019-04-22T10:55:32.319Z,29.9306
2019-04-22T10:56:35.293Z,29.9443
2019-04-22T10:57:38.998Z,30.1625
2019-04-22T10:58:42.648Z,30.7683
2019-04-22T10:59:45.275Z,29.3080
2019-04-22T11:00:49.893Z,29.3950
2019-04-22T11:01:54.820Z,28.4413
2019-04-22T11:02:58.286Z,28.5069
2019-04-22T11:04:01.544Z,28.9189
2019-04-22T11:05:04.311Z,29.2744
2019-04-22T11:06:07.516Z,28.1178
2019-04-22T11:07:12.781Z,27.7089
2019-04-22T11:08:25.637Z,28.9555
2019-04-22T11:09:25.256Z,29.3309
2019-04-22T11:10:44.547Z,29.1371
2019-04-22T11:11:46.618Z,29.3034
2019-04-22T11:12:45.106Z,28.5786
2019-04-22T11:13:49.526Z,28.5924
2019-04-22T11:14:53.745Z,29.0059
2019-04-22T11:15:58.460Z,29.8802
2019-04-22T11:17:03.391Z,30.2541
2019-04-22T11:18:07.471Z,29.9718
2019-04-22T11:19:11.767Z,29.9336
2019-04-22T11:20:15.584Z,30.5531
2019-04-22T11:21:19.810Z,30.6813
2019-04-22T11:22:28.525Z,30.4646
2019-04-22T11:23:32.396Z,31.7006
2019-04-22T11:24:36.857Z,31.7143
2019-04-22T11:25:41.602Z,31.9066
2019-04-22T11:26:45.287Z,32.7993
2019-04-22T11:27:49.403Z,32.6360
2019-04-22T11:28:53.802Z,32.8771
2019-04-22T11:29:57.477Z,33.1853
2019-04-22T11:31:00.808Z,33.4447
2019-04-22T11:32:04.400Z,33.6645
2019-04-22T11:33:08.578Z,33.8933
2019-04-22T11:34:11.281Z,34.1329
2019-04-22T11:35:14.316Z,34.7326
2019-04-22T11:36:17.772Z,34.3420
2019-04-22T11:37:22.424Z,34.6914
2019-04-22T11:38:26.797Z,34.6960
2019-04-22T11:39:32.799Z,34.3664
2019-04-22T11:40:42.193Z,34.3786
2019-04-22T11:41:46.509Z,34.0734
2019-04-22T11:42:50.279Z,34.2733
2019-04-22T11:43:53.629Z,33.1945
2019-04-22T11:44:57.139Z,32.7138
2019-04-22T11:46:00.306Z,32.8588
2019-04-22T11:47:03.488Z,32.7779
2019-04-22T11:48:06.290Z,32.9473
2019-04-22T11:49:09.871Z,32.8557
2019-04-22T11:50:13.331Z,32.6528
2019-04-22T11:51:16.293Z,32.5490
2019-04-22T11:52:20.504Z,32.9732
2019-04-22T11:53:24.730Z,32.3522
2019-04-22T11:54:28.643Z,31.5740
2019-04-22T11:55:32.600Z,31.8257
2019-04-22T11:56:36.921Z,31.7098
2019-04-22T11:57:41.369Z,31.3817
2019-04-22T11:58:44.584Z,31.6640
2019-04-22T11:59:46.973Z,31.8379
2019-04-22T12:00:51.954Z,31.8837
2019-04-22T12:01:57.004Z,32.0317
2019-04-22T12:03:00.851Z,31.8151
2019-04-22T12:04:04.365Z,32.2225
2019-04-22T12:05:07.950Z,32.5948
2019-04-22T12:06:11.336Z,32.3690
2019-04-22T12:07:15.087Z,32.0729
2019-04-22T12:08:18.305Z,32.1309
2019-04-22T12:09:21.577Z,32.4620
2019-04-22T12:10:34.465Z,32.0134
2019-04-22T12:11:34.493Z,30.8232
2019-04-22T12:12:37.295Z,31.2352
2019-04-22T12:13:40.322Z,31.8746
2019-04-22T12:14:43.344Z,32.1401
2019-04-22T12:15:46.755Z,31.4809
2019-04-22T12:16:50.364Z,32.1309
2019-04-22T12:17:53.356Z,33.0205
2019-04-22T12:18:58.532Z,32.3613
2019-04-22T12:20:05.599Z,31.3161
2019-04-22T12:21:10.968Z,32.2332
2019-04-22T12:22:15.351Z,32.9686
2019-04-22T12:23:19.024Z,33.0694
2019-04-22T12:24:23.509Z,32.4666
2019-04-22T12:25:34.800Z,31.8166
2019-04-22T12:26:35.291Z,32.0989
2019-04-22T12:27:38.988Z,32.1675
2019-04-22T12:28:42.286Z,31.5923
2019-04-22T12:29:45.368Z,32.0317
2019-04-22T12:30:49.317Z,31.3436
2019-04-22T12:31:53.521Z,31.5282
2019-04-22T12:32:58.134Z,30.4341
2019-04-22T12:34:01.503Z,29.8009
2019-04-22T12:35:05.267Z,30.6035
2019-04-22T12:36:08.593Z,31.5358
2019-04-22T12:37:17.421Z,30.8400
2019-04-22T12:38:20.228Z,30.5760
2019-04-22T12:39:23.339Z,31.1940
2019-04-22T12:40:37.421Z,31.1986
2019-04-22T12:41:34.310Z,32.0729
2019-04-22T12:42:37.644Z,31.5541
2019-04-22T12:43:41.010Z,31.7937
2019-04-22T12:44:45.837Z,31.6823
2019-04-22T12:45:50.381Z,32.3430
2019-04-22T12:46:54.504Z,32.2423
2019-04-22T12:47:57.907Z,32.3934
2019-04-22T12:49:00.378Z,31.6732
2019-04-22T12:50:12.700Z,31.5862
2019-04-22T12:51:11.301Z,31.1788
2019-04-22T12:52:24.341Z,31.5511
2019-04-22T12:53:25.694Z,31.8013
2019-04-22T12:54:31.113Z,31.4763
2019-04-22T12:55:34.452Z,31.6915
2019-04-22T12:56:37.613Z,31.6838
2019-04-22T12:57:40.843Z,31.3497
2019-04-22T12:58:45.585Z,31.6976
2019-04-22T12:59:49.832Z,31.8700
2019-04-22T13:00:54.569Z,31.6838
2019-04-22T13:01:58.577Z,32.0577
2019-04-22T13:03:01.357Z,32.1279
2019-04-22T13:04:09.409Z,32.5994
2019-04-22T13:05:12.493Z,32.4422
2019-04-22T13:06:15.279Z,32.5032
2019-04-22T13:07:19.775Z,32.9458
2019-04-22T13:08:23.541Z,32.9549
2019-04-22T13:09:27.503Z,32.8084
2019-04-22T13:10:42.980Z,32.7306
2019-04-22T13:11:38.863Z,32.4468
2019-04-22T13:12:44.485Z,31.8944
2019-04-22T13:13:47.324Z,32.3552
2019-04-22T13:14:50.717Z,32.5444
2019-04-22T13:15:54.959Z,32.5536
2019-04-22T13:16:59.679Z,32.7459
2019-04-22T13:18:12.862Z,32.6848
2019-04-22T13:19:12.942Z,32.9107
2019-04-22T13:20:20.148Z,32.4666
2019-04-22T13:21:24.656Z,32.5124
2019-04-22T13:22:27.268Z,32.5124
2019-04-22T13:23:31.673Z,32.7733
2019-04-22T13:24:36.169Z,32.1325
2019-04-22T13:25:40.821Z,31.6365
2019-04-22T13:26:45.264Z,31.2291
2019-04-22T13:27:49.097Z,30.9422
2019-04-22T13:28:52.298Z,31.9127
2019-04-22T13:29:55.302Z,31.2718
2019-04-22T13:31:01.416Z,31.0155
2019-04-22T13:32:06.735Z,30.8049
2019-04-22T13:33:10.752Z,30.9926
2019-04-22T13:34:21.577Z,30.6859
2019-04-22T13:35:24.112Z,31.2169
2019-04-22T13:36:30.286Z,31.1009
2019-04-22T13:37:35.030Z,31.3451
2019-04-22T13:38:38.733Z,31.3176
2019-04-22T13:39:41.356Z,30.8370
2019-04-22T13:40:57.812Z,30.5653
2019-04-22T13:41:59.586Z,31.3634
2019-04-22T13:43:00.759Z,30.6996
2019-04-22T13:44:04.978Z,30.3059
2019-04-22T13:45:09.537Z,30.9133
2019-04-22T13:46:12.501Z,30.7820
2019-04-22T13:47:32.628Z,30.4936
2019-04-22T13:48:38.794Z,30.2174
2019-04-22T13:52:20.696Z,30.6813
2019-04-22T13:53:42.608Z,30.5653
2019-04-22T13:54:51.075Z,30.0572
2019-04-22T13:55:41.464Z,30.6905
2019-04-22T13:56:43.150Z,30.2876
2019-04-22T13:57:47.117Z,30.3090
2019-04-22T13:58:52.453Z,29.9290
2019-04-22T13:59:52.363Z,30.4463
2019-04-22T14:00:56.444Z,30.4021
2019-04-22T14:02:00.740Z,30.4387
2019-04-22T14:03:04.612Z,29.6498
2019-04-22T14:04:07.319Z,29.7551
2019-04-22T14:05:10.613Z,30.1228
2019-04-22T14:06:13.300Z,30.5013
2019-04-22T14:07:19.005Z,29.9123
2019-04-22T14:08:23.032Z,30.4692
2019-04-22T14:09:26.469Z,30.1259
2019-04-22T14:10:30.227Z,28.9143
2019-04-22T14:11:43.320Z,28.9830
2019-04-22T14:12:42.542Z,29.0562
2019-04-22T14:13:46.150Z,28.9601
2019-04-22T14:14:50.655Z,29.2210
2019-04-22T14:15:55.344Z,28.8441
2019-04-22T14:16:58.783Z,28.8685
2019-04-22T14:18:03.074Z,29.0593
2019-04-22T14:19:07.723Z,29.3202
2019-04-22T14:20:11.294Z,29.6498
2019-04-22T14:21:14.926Z,29.7887
2019-04-22T14:22:18.329Z,29.6010
2019-04-22T14:23:22.561Z,29.5186
2019-04-22T14:24:26.009Z,29.6788
2019-04-22T14:25:30.481Z,29.8436
2019-04-22T14:26:44.254Z,30.1808
2019-04-22T14:27:52.442Z,29.8283
2019-04-22T14:28:50.328Z,30.1717
2019-04-22T14:29:53.597Z,30.6523
2019-04-22T14:30:56.925Z,30.9545
2019-04-22T14:32:08.623Z,30.5882
2019-04-22T14:33:09.766Z,30.9926
2019-04-22T14:34:13.836Z,31.2978
2019-04-22T14:35:18.542Z,30.9880
2019-04-22T14:36:23.401Z,31.0521
2019-04-22T14:37:27.728Z,31.3268
2019-04-22T14:38:32.396Z,31.6960
2019-04-22T14:39:35.772Z,32.1080
2019-04-22T14:40:41.433Z,32.2591
2019-04-22T14:43:17.591Z,32.8511
2019-04-22T14:44:12.633Z,32.4300
2019-04-22T14:45:05.180Z,31.9539
2019-04-22T14:45:42.298Z,31.7845
2019-04-22T14:46:51.157Z,30.6294
2019-04-22T14:47:58.197Z,30.7088
2019-04-22T14:48:57.330Z,31.1101
2019-04-22T14:50:05.025Z,31.3252
2019-04-22T14:51:07.719Z,31.5679
2019-04-22T14:52:21.573Z,31.7754
2019-04-22T14:53:27.567Z,32.1645
2019-04-22T14:54:31.298Z,31.7159
2019-04-22T14:55:25.931Z,32.1462
2019-04-22T14:56:30.565Z,32.2606
2019-04-22T14:57:34.290Z,31.5328
2019-04-22T14:58:40.563Z,31.5831
2019-04-22T14:59:44.302Z,31.8898
2019-04-22T15:00:49.089Z,31.8517
2019-04-22T15:01:53.928Z,31.3680
2019-04-22T15:02:57.593Z,31.7464
2019-04-22T15:04:02.822Z,31.8807
2019-04-22T15:05:06.315Z,31.6136
2019-04-22T15:06:10.526Z,31.4122
2019-04-22T15:07:14.846Z,31.8486
2019-04-22T15:08:19.160Z,32.0546
2019-04-22T15:09:24.001Z,31.9951
2019-04-22T15:10:28.220Z,31.7281
2019-04-22T15:11:43.695Z,32.0546
2019-04-22T15:12:46.127Z,32.1767